createdAt,value
2023-12-23T00:01:07.419Z,10.75
2023-12-23T00:03:35.049Z,9.43
2023-12-23T00:06:02.829Z,6.63
2023-12-23T00:08:31.262Z,10.55
2023-12-23T00:10:59.584Z,2.83
2023-12-23T00:13:27.683Z,7.20
2023-12-23T00:15:55.600Z,7.30
2023-12-23T00:18:23.481Z,7.93
2023-12-23T00:20:52.918Z,11.07
2023-12-23T00:23:22.051Z,4.95
2023-12-23T00:25:50.879Z,8.07
2023-12-23T00:28:19.038Z,7.07
2023-12-23T00:30:47.832Z,4.78
2023-12-23T00:33:17.302Z,7.22
2023-12-23T00:35:46.408Z,10.95
2023-12-23T00:38:16.022Z,10.38
2023-12-23T00:40:42.743Z,6.78
2023-12-23T00:43:11.907Z,3.88
2023-12-23T00:45:41.060Z,8.50
2023-12-23T00:48:10.514Z,6.90
2023-12-23T00:50:40.431Z,11.82
2023-12-23T00:53:10.492Z,10.02
2023-12-23T00:55:40.273Z,9.77
2023-12-23T00:58:07.812Z,9.48
2023-12-23T01:00:38.957Z,8.57
2023-12-23T01:03:06.929Z,5.75
2023-12-23T01:05:36.493Z,7.20
2023-12-23T01:08:06.270Z,5.93
2023-12-23T01:10:35.158Z,11.57
2023-12-23T01:13:03.348Z,3.55
2023-12-23T01:15:31.541Z,7.60
2023-12-23T01:17:59.970Z,9.13
2023-12-23T01:20:28.883Z,6.15
2023-12-23T01:22:57.787Z,2.97
2023-12-23T01:25:26.686Z,5.78
2023-12-23T01:27:56.418Z,5.85
2023-12-23T01:30:25.755Z,7.88
2023-12-23T01:32:53.952Z,7.63
2023-12-23T01:35:23.359Z,7.95
2023-12-23T01:37:53.337Z,10.77
2023-12-23T01:40:22.555Z,4.90
2023-12-23T01:42:50.848Z,7.18
2023-12-23T01:45:19.074Z,4.57
2023-12-23T01:47:50.211Z,7.32
2023-12-23T01:50:20.442Z,5.93
2023-12-23T01:52:49.032Z,6.55
2023-12-23T01:55:18.094Z,6.75
2023-12-23T01:57:46.336Z,3.78
2023-12-23T02:00:14.394Z,4.50
2023-12-23T02:02:43.477Z,5.75
2023-12-23T02:05:13.511Z,11.98
2023-12-23T02:07:46.086Z,5.05
2023-12-23T02:10:15.074Z,10.57
2023-12-23T02:13:09.874Z,5.28
2023-12-23T02:15:45.064Z,4.95
2023-12-23T02:18:13.181Z,6.65
2023-12-23T02:20:41.427Z,3.97
2023-12-23T02:23:10.467Z,6.45
2023-12-23T02:25:37.253Z,3.17
2023-12-23T02:28:08.422Z,2.85
2023-12-23T02:30:36.590Z,2.55
2023-12-23T02:33:04.641Z,1.58
2023-12-23T02:35:32.707Z,6.97
2023-12-23T02:37:59.450Z,4.85
2023-12-23T02:40:27.644Z,6.57
2023-12-23T02:42:55.631Z,8.27
2023-12-23T02:45:24.335Z,6.22
2023-12-23T02:47:52.712Z,6.25
2023-12-23T02:50:20.598Z,3.22
2023-12-23T02:52:48.251Z,3.08
2023-12-23T02:55:19.726Z,8.15
2023-12-23T02:57:47.789Z,3.85
2023-12-23T03:00:15.799Z,2.95
2023-12-23T03:02:44.052Z,7.38
2023-12-23T03:05:12.114Z,4.05
2023-12-23T03:07:40.978Z,5.65
2023-12-23T03:10:09.426Z,2.20
2023-12-23T03:12:36.277Z,2.95
2023-12-23T03:15:03.718Z,3.75
2023-12-23T03:17:31.368Z,1.65
2023-12-23T03:19:58.685Z,2.00
2023-12-23T03:22:26.644Z,4.25
2023-12-23T03:24:53.780Z,4.78
2023-12-23T03:27:20.515Z,1.85
2023-12-23T03:29:47.222Z,4.43
2023-12-23T03:32:14.080Z,4.20
2023-12-23T03:34:44.404Z,3.55
2023-12-23T03:37:11.173Z,4.35
2023-12-23T03:39:37.847Z,3.15
2023-12-23T03:42:04.728Z,2.28
2023-12-23T03:44:31.447Z,3.15
2023-12-23T03:46:58.244Z,3.85
2023-12-23T03:49:25.341Z,3.15
2023-12-23T03:51:52.095Z,4.18
2023-12-23T03:54:19.568Z,5.78
2023-12-23T03:56:47.879Z,2.90
2023-12-23T03:59:16.975Z,3.00
2023-12-23T04:01:46.649Z,3.10
2023-12-23T04:04:13.465Z,4.13
2023-12-23T04:06:40.159Z,1.20
2023-12-23T04:09:07.915Z,3.03
2023-12-23T04:11:37.295Z,2.50
2023-12-23T04:14:04.230Z,1.98
2023-12-23T04:16:30.979Z,1.38
2023-12-23T04:18:57.708Z,1.60
2023-12-23T04:21:24.419Z,4.80
2023-12-23T04:23:51.152Z,0.55
2023-12-23T04:26:18.052Z,0.88
2023-12-23T04:28:44.867Z,0.95
2023-12-23T04:31:11.935Z,2.28
2023-12-23T04:33:38.960Z,1.15
2023-12-23T04:36:06.282Z,1.85
2023-12-23T04:38:33.075Z,4.13
2023-12-23T04:40:59.910Z,2.05
2023-12-23T04:43:26.683Z,4.43
2023-12-23T04:45:53.455Z,1.45
2023-12-23T04:48:20.193Z,1.77
2023-12-23T04:50:47.396Z,1.20
2023-12-23T04:53:14.084Z,0.85
2023-12-23T04:55:40.906Z,1.95
2023-12-23T04:58:09.367Z,1.15
2023-12-23T05:00:37.619Z,1.10
2023-12-23T05:03:04.579Z,2.67
2023-12-23T05:05:31.321Z,5.68
2023-12-23T05:07:58.149Z,4.57
2023-12-23T05:10:24.886Z,4.88
2023-12-23T05:12:51.901Z,12.10
2023-12-23T05:15:18.786Z,15.18
2023-12-23T05:17:45.610Z,8.88
2023-12-23T05:20:12.450Z,8.45
2023-12-23T05:22:39.208Z,13.35
2023-12-23T05:25:06.020Z,11.30
2023-12-23T05:27:34.858Z,9.15
2023-12-23T05:30:04.158Z,7.68
2023-12-23T05:32:33.707Z,5.80
2023-12-23T05:35:03.321Z,6.82
2023-12-23T05:37:30.521Z,6.15
2023-12-23T05:39:57.235Z,7.93
2023-12-23T05:42:25.360Z,8.75
2023-12-23T05:44:52.210Z,6.75
2023-12-23T05:47:19.417Z,4.90
2023-12-23T05:49:46.170Z,8.05
2023-12-23T05:52:12.866Z,6.95
2023-12-23T05:54:42.570Z,7.60
2023-12-23T05:57:09.264Z,10.85
2023-12-23T05:59:35.901Z,8.68
2023-12-23T06:02:02.773Z,13.57
2023-12-23T06:04:29.469Z,4.72
2023-12-23T06:06:56.335Z,10.43
2023-12-23T06:09:23.015Z,13.45
2023-12-23T06:11:49.881Z,11.88
2023-12-23T06:14:16.818Z,14.13
2023-12-23T06:16:43.760Z,15.02
2023-12-23T06:19:10.585Z,10.52
2023-12-23T06:21:37.849Z,11.63
2023-12-23T06:24:04.956Z,20.92
2023-12-23T06:26:31.651Z,11.73
2023-12-23T06:28:58.373Z,10.07
2023-12-23T06:31:25.061Z,15.93
2023-12-23T06:33:51.900Z,11.10
2023-12-23T06:36:18.638Z,13.77
2023-12-23T06:38:47.607Z,12.43
2023-12-23T06:41:14.756Z,14.73
2023-12-23T06:43:46.615Z,12.65
2023-12-23T06:46:19.360Z,15.32
2023-12-23T06:48:46.161Z,6.93
2023-12-23T06:51:13.027Z,13.00
2023-12-23T06:53:39.867Z,12.68
2023-12-23T06:56:08.912Z,11.15
2023-12-23T06:58:35.788Z,12.45
2023-12-23T07:01:02.691Z,10.02
2023-12-23T07:03:32.171Z,11.93
2023-12-23T07:06:00.487Z,9.35
2023-12-23T07:08:29.554Z,11.82
2023-12-23T07:10:56.813Z,11.57
2023-12-23T07:13:23.975Z,14.48
2023-12-23T07:15:51.111Z,13.70
2023-12-23T07:18:18.229Z,10.73
2023-12-23T07:20:47.405Z,11.35
2023-12-23T07:23:15.462Z,12.93
2023-12-23T07:25:44.350Z,15.90
2023-12-23T07:28:11.521Z,12.63
2023-12-23T07:30:45.696Z,9.15
2023-12-23T07:33:16.215Z,11.90
2023-12-23T07:35:43.216Z,17.05
2023-12-23T07:38:10.061Z,16.17
2023-12-23T07:40:37.124Z,13.23
2023-12-23T07:43:04.017Z,13.43
2023-12-23T07:45:30.848Z,18.27
2023-12-23T07:47:57.785Z,16.42
2023-12-23T07:50:24.654Z,12.25
2023-12-23T07:52:51.807Z,9.55
2023-12-23T07:55:19.967Z,13.43
2023-12-23T07:57:46.804Z,13.38
2023-12-23T08:00:15.705Z,18.90
2023-12-23T08:02:43.474Z,12.98
2023-12-23T08:05:10.965Z,14.00
2023-12-23T08:07:43.133Z,14.75
2023-12-23T08:10:10.813Z,10.63
2023-12-23T08:12:38.661Z,18.50
2023-12-23T08:15:08.192Z,12.40
2023-12-23T08:17:35.388Z,12.50
2023-12-23T08:20:02.744Z,12.15
2023-12-23T08:22:29.912Z,15.27
2023-12-23T08:24:57.082Z,18.48
2023-12-23T08:27:24.221Z,15.95
2023-12-23T08:29:51.391Z,9.35
2023-12-23T08:32:18.560Z,13.25
2023-12-23T08:34:48.796Z,9.80
2023-12-23T08:37:15.972Z,16.73
2023-12-23T08:39:43.155Z,15.00
2023-12-23T08:42:10.252Z,17.75
2023-12-23T08:44:37.339Z,13.25
2023-12-23T08:47:04.534Z,9.98
2023-12-23T08:49:31.698Z,17.63
2023-12-23T08:51:58.779Z,13.93
2023-12-23T08:54:25.851Z,17.25
2023-12-23T08:56:53.003Z,13.23
2023-12-23T08:59:20.335Z,19.67
2023-12-23T09:01:47.538Z,12.73
2023-12-23T09:04:14.773Z,11.93
2023-12-23T09:06:41.865Z,13.85
2023-12-23T09:09:09.418Z,8.68
2023-12-23T09:11:42.260Z,9.73
2023-12-23T09:14:11.084Z,18.02
2023-12-23T09:16:38.240Z,8.55
2023-12-23T09:19:05.554Z,14.63
2023-12-23T09:21:32.770Z,17.85
2023-12-23T09:23:59.894Z,13.43
2023-12-23T09:26:27.027Z,10.73
2023-12-23T09:28:54.534Z,20.27
2023-12-23T09:31:21.620Z,14.52
2023-12-23T09:33:48.777Z,13.23
2023-12-23T09:36:15.899Z,12.23
2023-12-23T09:38:43.002Z,10.50
2023-12-23T09:41:10.120Z,12.38
2023-12-23T09:43:37.472Z,14.18
2023-12-23T09:46:04.911Z,10.82
2023-12-23T09:48:32.214Z,14.30
2023-12-23T09:50:59.376Z,18.25
2023-12-23T09:53:28.535Z,7.70
2023-12-23T09:55:56.012Z,9.13
2023-12-23T09:58:23.133Z,12.43
2023-12-23T10:00:50.351Z,10.60
2023-12-23T10:03:17.470Z,8.90
2023-12-23T10:05:45.103Z,13.63
2023-12-23T10:08:14.771Z,11.48
2023-12-23T10:10:42.037Z,12.77
2023-12-23T10:13:09.172Z,10.93
2023-12-23T10:15:37.365Z,9.38
2023-12-23T10:18:05.545Z,12.52
2023-12-23T10:20:33.860Z,8.43
2023-12-23T10:23:01.055Z,16.35
2023-12-23T10:25:28.198Z,14.65
2023-12-23T10:27:56.009Z,22.35
2023-12-23T10:30:24.644Z,17.88
2023-12-23T10:32:55.435Z,11.30
2023-12-23T10:37:51.709Z,13.00
2023-12-23T10:40:18.889Z,11.48
2023-12-23T10:42:46.905Z,18.77
2023-12-23T10:45:14.285Z,10.05
2023-12-23T10:47:41.690Z,13.10
2023-12-23T10:50:10.780Z,17.25
2023-12-23T10:52:42.125Z,12.93
2023-12-23T10:55:10.000Z,11.55
2023-12-23T10:57:38.200Z,7.68
2023-12-23T11:00:07.036Z,13.32
2023-12-23T11:02:36.276Z,12.02
2023-12-23T11:05:07.038Z,14.18
2023-12-23T11:07:36.816Z,15.18
2023-12-23T11:10:04.258Z,18.30
2023-12-23T11:12:31.808Z,10.93
2023-12-23T11:14:59.537Z,14.35
2023-12-23T11:17:28.151Z,14.35
2023-12-23T11:20:00.143Z,4.35
2023-12-23T11:24:55.886Z,11.55
2023-12-23T11:27:31.189Z,11.95
2023-12-23T11:30:01.199Z,8.55
2023-12-23T11:32:34.518Z,12.88
2023-12-23T11:35:01.906Z,11.55
2023-12-23T11:37:48.052Z,9.73
2023-12-23T11:40:16.278Z,14.77
2023-12-23T11:42:43.709Z,13.63
2023-12-23T11:45:12.338Z,17.30
2023-12-23T11:47:40.173Z,11.25
2023-12-23T11:50:07.863Z,15.98
2023-12-23T11:52:35.772Z,15.20
2023-12-23T11:55:04.524Z,8.27
2023-12-23T11:57:32.301Z,10.63
2023-12-23T12:00:00.472Z,11.55
2023-12-23T12:02:27.854Z,16.02
2023-12-23T12:04:55.264Z,8.43
2023-12-23T12:07:23.291Z,8.80
2023-12-23T12:09:51.749Z,11.02
2023-12-23T12:12:19.178Z,10.85
2023-12-23T12:14:45.981Z,11.80
2023-12-23T12:17:13.527Z,12.07
2023-12-23T12:19:40.330Z,12.25
2023-12-23T12:22:07.036Z,11.32
2023-12-23T12:24:35.363Z,11.55
2023-12-23T12:27:03.225Z,12.38
2023-12-23T12:29:30.630Z,10.35
2023-12-23T12:32:00.332Z,13.70
2023-12-23T12:34:29.052Z,11.65
2023-12-23T12:36:57.313Z,14.43
2023-12-23T12:39:24.210Z,8.93
2023-12-23T12:41:52.401Z,9.95
2023-12-23T12:44:21.211Z,5.57
2023-12-23T12:46:57.384Z,7.88
2023-12-23T12:49:24.971Z,12.10
2023-12-23T12:51:52.687Z,6.70
2023-12-23T12:54:21.281Z,11.00
2023-12-23T12:56:48.749Z,6.90
2023-12-23T12:59:16.103Z,14.35
2023-12-23T13:01:43.040Z,6.63
2023-12-23T13:04:09.829Z,10.63
2023-12-23T13:06:36.733Z,7.55
2023-12-23T13:09:05.477Z,5.95
2023-12-23T13:11:33.571Z,15.15
2023-12-23T13:14:00.555Z,9.05
2023-12-23T13:16:27.379Z,14.38
2023-12-23T13:18:59.955Z,6.72
2023-12-23T13:21:28.075Z,8.63
2023-12-23T13:23:55.057Z,6.82
2023-12-23T13:26:21.982Z,6.50
2023-12-23T13:28:51.948Z,11.32
2023-12-23T13:31:20.373Z,8.65
2023-12-23T13:33:47.544Z,5.35
2023-12-23T13:36:14.443Z,14.00
2023-12-23T13:38:45.269Z,9.00
2023-12-23T13:41:16.301Z,7.20
2023-12-23T13:43:43.196Z,10.07
2023-12-23T13:46:09.925Z,14.55
2023-12-23T13:48:36.896Z,10.55
2023-12-23T13:51:05.744Z,7.65
2023-12-23T13:53:32.836Z,6.28
2023-12-23T13:55:59.627Z,11.23
2023-12-23T13:58:26.336Z,8.98
2023-12-23T14:00:54.305Z,11.15
2023-12-23T14:03:21.181Z,8.38
2023-12-23T14:05:48.087Z,6.95
2023-12-23T14:08:14.939Z,8.10
2023-12-23T14:10:49.033Z,10.23
2023-12-23T14:13:16.604Z,9.93
2023-12-23T14:15:43.303Z,10.70
2023-12-23T14:18:10.648Z,10.57
2023-12-23T14:20:37.774Z,7.28
2023-12-23T14:23:08.067Z,9.43
2023-12-23T14:25:35.692Z,8.18
2023-12-23T14:28:02.387Z,6.60
2023-12-23T14:30:29.194Z,4.53
2023-12-23T14:32:55.953Z,5.53
2023-12-23T14:35:23.311Z,4.97
2023-12-23T14:37:51.233Z,9.20
2023-12-23T14:40:20.295Z,7.68
2023-12-23T14:42:47.476Z,14.85
2023-12-23T14:45:14.434Z,8.45
2023-12-23T14:47:41.304Z,8.13
2023-12-23T14:50:08.532Z,5.25
2023-12-23T14:52:35.257Z,3.97
2023-12-23T14:55:01.963Z,6.78
2023-12-23T14:57:28.780Z,9.50
2023-12-23T14:59:55.473Z,11.25
2023-12-23T15:02:23.722Z,6.85
2023-12-23T15:04:51.495Z,8.35
2023-12-23T15:07:18.399Z,6.05
2023-12-23T15:09:45.115Z,7.93
2023-12-23T15:12:18.522Z,8.75
2023-12-23T15:14:46.545Z,9.85
2023-12-23T15:17:13.925Z,7.70
2023-12-23T15:19:40.658Z,10.30
2023-12-23T15:22:08.797Z,8.05
2023-12-23T15:24:36.622Z,10.35
2023-12-23T15:27:04.266Z,8.27
2023-12-23T15:29:31.098Z,5.00
2023-12-23T15:31:57.971Z,12.30
2023-12-23T15:34:24.777Z,9.52
2023-12-23T15:36:53.026Z,8.40
2023-12-23T15:39:22.052Z,5.93
2023-12-23T15:41:48.729Z,12.43
2023-12-23T15:44:15.482Z,7.68
2023-12-23T15:46:43.626Z,8.82
2023-12-23T15:49:11.458Z,8.18
2023-12-23T15:51:40.827Z,5.30
2023-12-23T15:54:09.944Z,6.93
2023-12-23T15:56:41.335Z,12.80
2023-12-23T15:59:08.636Z,10.38
2023-12-23T16:01:36.127Z,7.68
2023-12-23T16:04:04.208Z,8.80
2023-12-23T16:06:34.115Z,9.38
2023-12-23T16:09:01.670Z,6.00
2023-12-23T16:11:30.945Z,6.78
2023-12-23T16:14:00.053Z,8.30
2023-12-23T16:16:29.066Z,3.88
2023-12-23T16:18:56.717Z,5.78
2023-12-23T16:21:24.516Z,6.65
2023-12-23T16:23:51.131Z,6.45
2023-12-23T16:26:18.966Z,5.60
2023-12-23T16:28:46.645Z,8.30
2023-12-23T16:31:14.478Z,5.93
2023-12-23T16:33:41.892Z,9.15
2023-12-23T16:36:11.547Z,8.05
2023-12-23T16:38:38.364Z,6.45
2023-12-23T16:41:05.191Z,10.60
2023-12-23T16:43:32.024Z,11.10
2023-12-23T16:45:58.714Z,8.07
2023-12-23T16:48:25.444Z,9.60
2023-12-23T16:50:53.714Z,8.70
2023-12-23T16:53:20.558Z,5.85
2023-12-23T16:55:47.388Z,10.82
2023-12-23T16:58:14.336Z,7.53
2023-12-23T17:00:41.065Z,10.05
2023-12-23T17:03:08.330Z,7.53
2023-12-23T17:05:36.151Z,7.35
2023-12-23T17:08:04.173Z,8.65
2023-12-23T17:10:32.121Z,11.05
2023-12-23T17:12:59.364Z,8.52
2023-12-23T17:15:26.651Z,3.67
2023-12-23T17:17:53.484Z,10.25
2023-12-23T17:20:21.018Z,8.68
2023-12-23T17:22:54.657Z,5.70
2023-12-23T17:25:23.052Z,8.32
2023-12-23T17:27:52.662Z,9.18
2023-12-23T17:30:20.529Z,11.02
2023-12-23T17:32:49.436Z,7.70
2023-12-23T17:35:17.950Z,10.35
2023-12-23T17:37:46.042Z,3.08
2023-12-23T17:40:14.199Z,10.52
2023-12-23T17:42:43.138Z,5.65
2023-12-23T17:45:10.027Z,8.77
2023-12-23T17:47:36.935Z,8.20
2023-12-23T17:50:05.477Z,5.82
2023-12-23T17:52:32.183Z,4.38
2023-12-23T17:54:58.929Z,6.35
2023-12-23T17:57:25.632Z,6.80
2023-12-23T17:59:54.297Z,6.57
2023-12-23T18:02:21.471Z,7.60
2023-12-23T18:04:48.478Z,5.63
2023-12-23T18:07:15.210Z,7.55
2023-12-23T18:09:41.910Z,7.20
2023-12-23T18:12:08.767Z,6.65
2023-12-23T18:14:35.522Z,9.55
2023-12-23T18:17:04.391Z,11.05
2023-12-23T18:19:31.338Z,5.03
2023-12-23T18:21:59.772Z,8.98
2023-12-23T18:24:29.488Z,3.70
2023-12-23T18:26:57.178Z,6.47
2023-12-23T18:29:23.867Z,6.35
2023-12-23T18:31:51.991Z,6.93
2023-12-23T18:34:20.950Z,8.95
2023-12-23T18:36:47.676Z,5.35
2023-12-23T18:39:14.339Z,4.85
2023-12-23T18:41:41.025Z,7.55
2023-12-23T18:44:09.572Z,6.75
2023-12-23T18:46:36.315Z,3.92
2023-12-23T18:49:04.362Z,5.15
2023-12-23T18:51:32.731Z,7.45
2023-12-23T18:54:01.928Z,9.68
2023-12-23T18:56:29.684Z,8.35
2023-12-23T18:58:57.722Z,5.43
2023-12-23T19:01:26.633Z,2.25
2023-12-23T19:03:55.066Z,2.97
2023-12-23T19:06:22.411Z,6.80
2023-12-23T19:08:49.367Z,6.35
2023-12-23T19:11:17.001Z,4.93
2023-12-23T19:13:44.749Z,6.97
2023-12-23T19:16:12.882Z,3.45
2023-12-23T19:18:42.482Z,3.88
2023-12-23T19:21:11.324Z,6.25
2023-12-23T19:23:39.650Z,5.30
2023-12-23T19:26:07.244Z,6.82
2023-12-23T19:28:37.047Z,4.30
2023-12-23T19:31:05.207Z,6.95
2023-12-23T19:33:34.288Z,5.47
2023-12-23T19:36:02.323Z,6.97
2023-12-23T19:38:31.508Z,5.85
2023-12-23T19:41:00.723Z,7.32
2023-12-23T19:43:29.428Z,4.45
2023-12-23T19:45:58.556Z,4.80
2023-12-23T19:48:27.422Z,3.85
2023-12-23T19:50:56.888Z,6.13
2023-12-23T19:53:25.639Z,5.47
2023-12-23T19:55:52.431Z,6.28
2023-12-23T19:58:19.203Z,6.55
2023-12-23T20:00:47.719Z,2.83
2023-12-23T20:03:15.073Z,7.90
2023-12-23T20:05:42.985Z,4.00
2023-12-23T20:08:11.183Z,5.22
2023-12-23T20:10:40.600Z,2.53
2023-12-23T20:13:08.609Z,7.85
2023-12-23T20:15:36.882Z,5.70
2023-12-23T20:18:09.038Z,5.25
2023-12-23T20:20:37.517Z,1.92
2023-12-23T20:23:06.089Z,3.33
2023-12-23T20:25:35.958Z,11.35
2023-12-23T20:28:03.581Z,5.82
2023-12-23T20:30:30.277Z,5.75
2023-12-23T20:32:57.310Z,8.27
2023-12-23T20:35:25.637Z,7.40
2023-12-23T20:37:55.731Z,2.78
2023-12-23T20:40:22.498Z,3.55
2023-12-23T20:42:52.974Z,5.47
2023-12-23T20:45:20.993Z,8.40
2023-12-23T20:47:49.188Z,3.75
2023-12-23T20:50:17.337Z,5.43
2023-12-23T20:52:45.509Z,7.63
2023-12-23T20:55:19.063Z,10.05
2023-12-23T20:57:48.788Z,5.70
2023-12-23T21:00:21.095Z,8.07
2023-12-23T21:02:51.294Z,3.47
2023-12-23T21:05:19.488Z,3.67
2023-12-23T21:07:48.758Z,10.85
2023-12-23T21:10:17.768Z,5.38
2023-12-23T21:12:48.062Z,5.75
2023-12-23T21:15:16.852Z,7.10
2023-12-23T21:17:45.008Z,10.23
2023-12-23T21:20:13.104Z,6.05
2023-12-23T21:22:41.386Z,3.88
2023-12-23T21:25:10.910Z,6.38
2023-12-23T21:27:39.734Z,7.85
2023-12-23T21:30:08.108Z,5.03
2023-12-23T21:32:37.563Z,10.02
2023-12-23T21:35:07.226Z,5.10
2023-12-23T21:37:35.515Z,8.77
2023-12-23T21:40:04.926Z,10.88
2023-12-23T21:42:33.223Z,4.70
2023-12-23T21:45:01.486Z,6.70
2023-12-23T21:47:29.561Z,8.50
2023-12-23T21:49:58.746Z,7.07
2023-12-23T21:52:28.750Z,5.88
2023-12-23T21:54:56.868Z,5.95
2023-12-23T21:57:25.099Z,8.75
2023-12-23T21:59:53.877Z,6.00
2023-12-23T22:02:21.975Z,4.18
2023-12-23T22:04:50.862Z,6.95
2023-12-23T22:07:17.741Z,11.50
2023-12-23T22:09:44.450Z,8.65
2023-12-23T22:12:12.750Z,5.00
2023-12-23T22:14:39.842Z,5.90
2023-12-23T22:17:06.593Z,9.30
2023-12-23T22:19:34.568Z,6.25
2023-12-23T22:22:01.358Z,6.82
2023-12-23T22:24:29.326Z,9.88
2023-12-23T22:26:55.983Z,8.93
2023-12-23T22:29:22.733Z,7.43
2023-12-23T22:31:49.486Z,8.65
2023-12-23T22:34:16.414Z,8.23
2023-12-23T22:36:43.240Z,7.32
2023-12-23T22:39:09.948Z,7.18
2023-12-23T22:41:36.761Z,8.80
2023-12-23T22:44:05.116Z,4.70
2023-12-23T22:46:31.820Z,6.07
2023-12-23T22:48:58.521Z,9.75
2023-12-23T22:51:25.280Z,11.60
2023-12-23T22:53:51.962Z,6.57
2023-12-23T22:56:18.752Z,10.20
2023-12-23T22:58:45.484Z,8.27
2023-12-23T23:01:16.104Z,6.65
2023-12-23T23:03:46.391Z,7.18
2023-12-23T23:06:13.275Z,9.40
2023-12-23T23:08:40.100Z,8.23
2023-12-23T23:11:06.893Z,6.45
2023-12-23T23:13:33.686Z,13.18
2023-12-23T23:16:00.345Z,9.18
2023-12-23T23:18:27.146Z,9.48
2023-12-23T23:20:54.015Z,7.05
2023-12-23T23:23:21.175Z,7.70
2023-12-23T23:25:47.850Z,6.97
2023-12-23T23:28:14.532Z,11.57
2023-12-23T23:30:41.221Z,7.65
2023-12-23T23:33:08.063Z,11.65
2023-12-23T23:35:34.903Z,7.10
2023-12-23T23:38:01.636Z,8.30
2023-12-23T23:40:28.612Z,12.63
2023-12-23T23:42:55.525Z,6.13
2023-12-23T23:45:22.635Z,9.52
2023-12-23T23:47:49.542Z,11.20
2023-12-23T23:50:18.449Z,7.00
2023-12-23T23:52:45.531Z,11.20
2023-12-23T23:55:12.291Z,10.00
2023-12-23T23:57:42.143Z,11.85
